createdAt,value
2022-11-10T00:01:22.622Z,11.51
2022-11-10T00:06:24.032Z,11.56
2022-11-10T00:11:25.678Z,11.56
2022-11-10T00:16:45.810Z,11.44
2022-11-10T00:21:47.250Z,11.51
2022-11-10T00:26:49.504Z,11.50
2022-11-10T00:31:51.220Z,11.48
2022-11-10T00:36:52.677Z,11.44
2022-11-10T00:41:54.439Z,11.43
2022-11-10T00:46:55.890Z,11.44
2022-11-10T00:51:57.334Z,11.38
2022-11-10T00:56:58.825Z,11.43
2022-11-10T01:02:00.304Z,11.39
2022-11-10T01:07:01.826Z,11.35
2022-11-10T01:12:03.554Z,11.37
2022-11-10T01:17:05.067Z,11.45
2022-11-10T01:22:06.466Z,11.37
2022-11-10T01:27:07.863Z,11.39
2022-11-10T01:32:09.303Z,11.33
2022-11-10T01:37:12.111Z,11.25
2022-11-10T01:42:13.860Z,11.27
2022-11-10T01:47:15.294Z,11.36
2022-11-10T01:52:16.703Z,11.37
2022-11-10T01:57:18.431Z,11.37
2022-11-10T02:02:47.711Z,11.37
2022-11-10T02:07:51.680Z,11.35
2022-11-10T02:12:53.123Z,11.41
2022-11-10T02:17:54.555Z,11.38
2022-11-10T02:22:56.041Z,11.39
2022-11-10T02:27:57.574Z,11.45
2022-11-10T02:32:59.050Z,11.40
2022-11-10T02:38:00.548Z,11.46
2022-11-10T02:43:06.460Z,11.47
2022-11-10T02:48:09.026Z,11.53
2022-11-10T02:53:10.472Z,11.51
2022-11-10T02:58:12.119Z,11.45
2022-11-10T03:03:13.532Z,11.42
2022-11-10T03:08:14.961Z,11.40
2022-11-10T03:13:16.370Z,11.26
2022-11-10T03:18:18.116Z,11.23
2022-11-10T03:23:20.006Z,11.21
2022-11-10T03:28:21.740Z,11.26
2022-11-10T03:33:23.606Z,11.22
2022-11-10T03:38:25.155Z,11.18
2022-11-10T03:43:26.572Z,11.18
2022-11-10T03:48:28.003Z,11.22
2022-11-10T03:53:29.452Z,11.23
2022-11-10T03:58:31.260Z,11.26
2022-11-10T04:03:32.908Z,11.29
2022-11-10T04:08:53.034Z,11.25
2022-11-10T04:14:12.868Z,11.26
2022-11-10T04:19:14.667Z,11.26
2022-11-10T04:24:16.366Z,11.24
2022-11-10T04:29:19.796Z,11.24
2022-11-10T04:34:21.255Z,11.22
2022-11-10T04:39:22.696Z,11.20
2022-11-10T04:44:24.372Z,11.17
2022-11-10T04:49:25.847Z,11.18
2022-11-10T04:54:27.378Z,11.19
2022-11-10T04:59:28.798Z,11.28
2022-11-10T05:04:30.201Z,11.23
2022-11-10T05:09:31.634Z,11.23
2022-11-10T05:14:33.050Z,11.25
2022-11-10T05:19:34.463Z,11.21
2022-11-10T05:24:35.877Z,11.20
2022-11-10T05:29:37.287Z,11.01
2022-11-10T05:34:38.752Z,11.11
2022-11-10T05:39:40.397Z,11.11
2022-11-10T05:44:41.805Z,11.08
2022-11-10T05:49:43.225Z,11.10
2022-11-10T05:54:44.635Z,11.06
2022-11-10T05:59:46.077Z,11.04
2022-11-10T06:04:47.486Z,11.05
2022-11-10T06:09:48.899Z,11.07
2022-11-10T06:14:51.071Z,11.13
2022-11-10T06:19:52.509Z,11.06
2022-11-10T06:24:53.926Z,11.02
2022-11-10T06:29:55.411Z,10.92
2022-11-10T06:35:00.523Z,10.98
2022-11-10T06:40:02.301Z,10.90
2022-11-10T06:45:04.202Z,10.92
2022-11-10T06:50:06.015Z,11.04
2022-11-10T06:55:07.935Z,11.04
2022-11-10T07:00:10.286Z,11.06
2022-11-10T07:05:12.259Z,11.09
2022-11-10T07:10:14.831Z,11.12
2022-11-10T07:15:16.232Z,11.16
2022-11-10T07:20:17.735Z,11.17
2022-11-10T07:25:19.179Z,11.25
2022-11-10T07:30:20.657Z,11.23
2022-11-10T07:35:22.130Z,11.27
2022-11-10T07:40:24.073Z,11.31
2022-11-10T07:45:26.144Z,11.27
2022-11-10T07:50:28.364Z,11.11
2022-11-10T07:55:29.827Z,11.05
2022-11-10T08:00:31.839Z,11.11
2022-11-10T08:05:34.261Z,10.99
2022-11-10T08:10:36.497Z,11.04
2022-11-10T08:15:38.914Z,11.13
2022-11-10T08:20:40.328Z,11.15
2022-11-10T08:25:42.285Z,11.19
2022-11-10T08:30:46.322Z,11.47
2022-11-10T08:35:50.004Z,11.61
2022-11-10T08:40:51.499Z,11.83
2022-11-10T08:45:56.938Z,11.88
2022-11-10T08:51:00.135Z,12.05
2022-11-10T08:56:01.543Z,12.05
2022-11-10T09:01:07.314Z,12.16
2022-11-10T09:06:08.756Z,12.50
2022-11-10T09:11:10.210Z,13.01
2022-11-10T09:16:11.660Z,13.42
2022-11-10T09:21:13.159Z,13.31
2022-11-10T09:26:14.630Z,13.19
2022-11-10T09:31:16.093Z,13.55
2022-11-10T09:36:17.742Z,13.65
2022-11-10T09:41:19.236Z,13.71
2022-11-10T09:46:37.853Z,14.17
2022-11-10T09:51:47.939Z,14.38
2022-11-10T09:56:53.498Z,14.54
2022-11-10T10:02:12.739Z,14.48
2022-11-10T10:07:30.764Z,14.52
2022-11-10T10:13:06.314Z,14.79
2022-11-10T10:18:07.684Z,14.90
2022-11-10T10:23:40.702Z,14.96
2022-11-10T10:28:47.400Z,14.89
2022-11-10T10:33:49.277Z,14.82
2022-11-10T10:38:54.262Z,14.53
2022-11-10T10:43:58.915Z,14.59
2022-11-10T10:49:31.060Z,14.59
2022-11-10T10:54:35.755Z,14.84
2022-11-10T10:59:37.232Z,14.99
2022-11-10T11:04:38.641Z,14.81
2022-11-10T11:09:43.425Z,14.65
2022-11-10T11:14:46.324Z,15.08
2022-11-10T11:19:57.099Z,14.80
2022-11-10T11:25:15.959Z,14.83
2022-11-10T11:30:20.343Z,14.71
2022-11-10T11:35:34.136Z,14.35
2022-11-10T11:41:06.446Z,14.43
2022-11-10T11:46:10.737Z,14.07
2022-11-10T11:51:31.561Z,14.19
2022-11-10T11:56:39.276Z,13.92
2022-11-10T12:02:04.814Z,14.10
2022-11-10T12:07:23.591Z,14.08
2022-11-10T12:12:40.223Z,14.25
2022-11-10T12:18:19.007Z,14.30
2022-11-10T12:23:29.479Z,14.15
2022-11-10T12:28:44.291Z,14.14
2022-11-10T12:33:50.387Z,14.17
2022-11-10T12:39:12.324Z,14.18
2022-11-10T12:44:36.449Z,13.96
2022-11-10T12:49:41.598Z,14.28
2022-11-10T12:54:45.638Z,14.13
2022-11-10T13:00:06.881Z,14.24
2022-11-10T13:05:14.339Z,13.89
2022-11-10T13:10:18.510Z,14.22
2022-11-10T13:15:37.945Z,14.01
2022-11-10T13:20:39.336Z,14.08
2022-11-10T13:26:00.167Z,13.91
2022-11-10T13:31:27.568Z,13.84
2022-11-10T13:36:43.763Z,13.63
2022-11-10T13:42:01.124Z,13.85
2022-11-10T13:47:08.316Z,13.89
2022-11-10T13:52:37.744Z,13.80
2022-11-10T13:57:41.543Z,13.61
2022-11-10T14:02:50.463Z,13.78
2022-11-10T14:07:54.435Z,13.87
2022-11-10T14:13:05.676Z,13.85
2022-11-10T14:18:25.671Z,13.91
2022-11-10T14:23:47.446Z,13.68
2022-11-10T14:28:48.865Z,13.62
2022-11-10T14:33:56.051Z,13.64
2022-11-10T14:38:58.205Z,13.44
2022-11-10T14:44:05.369Z,13.37
2022-11-10T14:49:10.765Z,13.30
2022-11-10T14:54:16.983Z,13.39
2022-11-10T14:59:20.196Z,13.24
2022-11-10T15:04:31.805Z,13.11
2022-11-10T15:09:33.517Z,13.05
2022-11-10T15:14:39.406Z,12.95
2022-11-10T15:19:46.712Z,12.67
2022-11-10T15:24:51.568Z,12.58
2022-11-10T15:29:54.210Z,12.58
2022-11-10T15:35:27.490Z,12.43
2022-11-10T15:40:31.833Z,12.49
2022-11-10T15:45:33.324Z,12.40
2022-11-10T15:50:34.817Z,12.33
2022-11-10T15:55:36.272Z,12.21
2022-11-10T16:00:38.049Z,12.18
2022-11-10T16:05:41.073Z,12.10
2022-11-10T16:10:45.899Z,12.07
2022-11-10T16:15:47.858Z,11.98
2022-11-10T16:20:50.874Z,11.91
2022-11-10T16:25:55.495Z,11.78
2022-11-10T16:30:56.908Z,11.77
2022-11-10T16:35:59.927Z,11.77
2022-11-10T16:41:03.539Z,11.72
2022-11-10T16:46:14.995Z,11.67
2022-11-10T16:51:17.998Z,11.56
2022-11-10T16:56:21.015Z,11.51
2022-11-10T17:01:26.308Z,11.46
2022-11-10T17:06:29.618Z,11.36
2022-11-10T17:11:31.024Z,11.32
2022-11-10T17:16:37.635Z,11.31
2022-11-10T17:21:39.178Z,11.28
2022-11-10T17:26:41.127Z,11.23
2022-11-10T17:31:42.815Z,11.16
2022-11-10T17:36:44.441Z,11.10
2022-11-10T17:41:45.839Z,11.09
2022-11-10T17:46:47.437Z,11.03
2022-11-10T17:51:49.022Z,11.00
2022-11-10T17:56:50.421Z,10.94
2022-11-10T18:01:51.833Z,10.92
2022-11-10T18:06:53.387Z,10.95
2022-11-10T18:11:54.820Z,10.86
2022-11-10T18:16:56.284Z,10.92
2022-11-10T18:21:57.686Z,10.93
2022-11-10T18:26:59.140Z,10.95
2022-11-10T18:32:00.585Z,10.94
2022-11-10T18:37:02.023Z,10.97
2022-11-10T18:42:03.959Z,11.07
2022-11-10T18:47:12.167Z,11.06
2022-11-10T18:52:13.636Z,11.11
2022-11-10T18:57:16.664Z,11.13
2022-11-10T19:02:18.205Z,11.13
2022-11-10T19:07:19.759Z,11.17
2022-11-10T19:12:26.405Z,11.18
2022-11-10T19:17:28.304Z,11.13
2022-11-10T19:22:30.060Z,11.07
2022-11-10T19:27:31.466Z,11.09
2022-11-10T19:32:33.221Z,11.00
2022-11-10T19:37:35.030Z,11.02
2022-11-10T19:42:36.437Z,11.03
2022-11-10T19:47:37.850Z,11.00
2022-11-10T19:52:39.272Z,10.96
2022-11-10T19:57:40.707Z,10.83
2022-11-10T20:02:45.602Z,10.76
2022-11-10T20:08:09.712Z,10.70
2022-11-10T20:13:11.939Z,10.64
2022-11-10T20:18:13.554Z,10.55
2022-11-10T20:23:16.094Z,10.50
2022-11-10T20:28:17.494Z,10.53
2022-11-10T20:33:18.919Z,10.53
2022-11-10T20:38:20.452Z,10.56
2022-11-10T20:43:22.266Z,10.53
2022-11-10T20:48:23.945Z,10.47
2022-11-10T20:53:26.107Z,10.40
2022-11-10T20:58:28.626Z,10.35
2022-11-10T21:03:31.188Z,10.33
2022-11-10T21:08:33.089Z,10.34
2022-11-10T21:13:34.910Z,10.32
2022-11-10T21:18:37.059Z,10.29
2022-11-10T21:23:39.503Z,10.27
2022-11-10T21:28:40.901Z,10.23
2022-11-10T21:33:42.307Z,10.14
2022-11-10T21:38:47.119Z,10.12
2022-11-10T21:43:48.587Z,10.02
2022-11-10T21:48:50.902Z,10.00
2022-11-10T21:53:52.302Z,9.99
2022-11-10T21:58:53.702Z,9.94
2022-11-10T22:03:55.154Z,9.90
2022-11-10T22:08:56.621Z,9.88
2022-11-10T22:14:16.730Z,9.85
2022-11-10T22:19:18.333Z,9.82
2022-11-10T22:24:28.607Z,9.84
2022-11-10T22:29:32.434Z,9.82
2022-11-10T22:34:33.885Z,9.81
2022-11-10T22:39:53.998Z,9.80
2022-11-10T22:44:55.421Z,9.72
2022-11-10T22:49:56.829Z,9.67
2022-11-10T22:54:58.413Z,9.62
2022-11-10T22:59:59.838Z,9.52
2022-11-10T23:05:01.311Z,9.43
2022-11-10T23:10:02.891Z,9.35
2022-11-10T23:15:04.456Z,9.21
2022-11-10T23:20:06.417Z,9.13
2022-11-10T23:25:08.098Z,9.08
2022-11-10T23:30:10.083Z,9.12
2022-11-10T23:35:11.525Z,9.09
2022-11-10T23:40:13.314Z,9.17
2022-11-10T23:45:14.723Z,9.28
2022-11-10T23:50:16.319Z,9.36
2022-11-10T23:55:17.980Z,9.36
